sensor_id;sensor_type;location;lat;lon;timestamp;temperature;humidity
29551;DHT22;16488;52.396;10.696;2023-08-24T00:00:39;14.90;99.90
29551;DHT22;16488;52.396;10.696;2023-08-24T00:03:06;14.90;99.90
29551;DHT22;16488;52.396;10.696;2023-08-24T00:05:35;14.90;99.90
29551;DHT22;16488;52.396;10.696;2023-08-24T00:08:06;14.90;99.90
29551;DHT22;16488;52.396;10.696;2023-08-24T00:10:31;14.80;99.90
29551;DHT22;16488;52.396;10.696;2023-08-24T00:12:58;14.80;99.90
29551;DHT22;16488;52.396;10.696;2023-08-24T00:15:23;14.80;99.90
29551;DHT22;16488;52.396;10.696;2023-08-24T00:17:49;14.80;99.90
29551;DHT22;16488;52.396;10.696;2023-08-24T00:20:15;14.80;99.90
29551;DHT22;16488;52.396;10.696;2023-08-24T00:22:41;14.80;99.90
29551;DHT22;16488;52.396;10.696;2023-08-24T00:25:07;14.90;99.90
29551;DHT22;16488;52.396;10.696;2023-08-24T00:27:34;14.90;99.90
29551;DHT22;16488;52.396;10.696;2023-08-24T00:30:02;14.80;99.90
29551;DHT22;16488;52.396;10.696;2023-08-24T00:32:29;14.80;99.90
29551;DHT22;16488;52.396;10.696;2023-08-24T00:34:55;14.80;99.90
29551;DHT22;16488;52.396;10.696;2023-08-24T00:37:21;14.80;99.90
29551;DHT22;16488;52.396;10.696;2023-08-24T00:39:46;14.70;99.90
29551;DHT22;16488;52.396;10.696;2023-08-24T00:42:12;14.70;99.90
29551;DHT22;16488;52.396;10.696;2023-08-24T00:44:41;14.70;99.90
29551;DHT22;16488;52.396;10.696;2023-08-24T00:47:07;14.60;99.90
29551;DHT22;16488;52.396;10.696;2023-08-24T00:49:34;14.60;99.90
29551;DHT22;16488;52.396;10.696;2023-08-24T00:52:00;14.60;99.90
29551;DHT22;16488;52.396;10.696;2023-08-24T00:54:26;14.60;99.90
29551;DHT22;16488;52.396;10.696;2023-08-24T00:56:52;14.60;99.90
29551;DHT22;16488;52.396;10.696;2023-08-24T00:59:18;14.70;99.90
29551;DHT22;16488;52.396;10.696;2023-08-24T01:01:45;14.80;99.90
29551;DHT22;16488;52.396;10.696;2023-08-24T01:04:12;15.00;99.90
29551;DHT22;16488;52.396;10.696;2023-08-24T01:06:38;15.10;99.90
29551;DHT22;16488;52.396;10.696;2023-08-24T01:09:04;15.20;99.90
29551;DHT22;16488;52.396;10.696;2023-08-24T01:14:09;15.50;99.90
29551;DHT22;16488;52.396;10.696;2023-08-24T01:16:41;15.50;99.90
29551;DHT22;16488;52.396;10.696;2023-08-24T01:19:59;15.50;99.90
29551;DHT22;16488;52.396;10.696;2023-08-24T01:24:47;15.60;99.90
29551;DHT22;16488;52.396;10.696;2023-08-24T01:27:18;15.60;99.90
29551;DHT22;16488;52.396;10.696;2023-08-24T01:29:45;15.50;99.90
29551;DHT22;16488;52.396;10.696;2023-08-24T01:32:11;15.50;99.90
29551;DHT22;16488;52.396;10.696;2023-08-24T01:34:39;15.60;99.90
29551;DHT22;16488;52.396;10.696;2023-08-24T01:37:06;15.60;99.90
29551;DHT22;16488;52.396;10.696;2023-08-24T01:40:10;15.50;99.90
29551;DHT22;16488;52.396;10.696;2023-08-24T01:42:59;15.30;99.90
29551;DHT22;16488;52.396;10.696;2023-08-24T01:45:29;15.10;99.90
29551;DHT22;16488;52.396;10.696;2023-08-24T01:47:56;14.90;99.90
29551;DHT22;16488;52.396;10.696;2023-08-24T01:50:22;14.80;99.90
29551;DHT22;16488;52.396;10.696;2023-08-24T01:52:49;14.80;99.90
29551;DHT22;16488;52.396;10.696;2023-08-24T01:55:18;14.70;99.90
29551;DHT22;16488;52.396;10.696;2023-08-24T01:57:43;14.80;99.90
29551;DHT22;16488;52.396;10.696;2023-08-24T02:00:09;14.70;99.90
29551;DHT22;16488;52.396;10.696;2023-08-24T02:02:36;14.60;99.90
29551;DHT22;16488;52.396;10.696;2023-08-24T02:05:02;14.70;99.90
29551;DHT22;16488;52.396;10.696;2023-08-24T02:07:28;14.70;99.90
29551;DHT22;16488;52.396;10.696;2023-08-24T02:09:54;14.60;99.90
29551;DHT22;16488;52.396;10.696;2023-08-24T02:12:19;14.70;99.90
29551;DHT22;16488;52.396;10.696;2023-08-24T02:14:45;14.80;99.90
29551;DHT22;16488;52.396;10.696;2023-08-24T02:17:10;14.70;99.90
29551;DHT22;16488;52.396;10.696;2023-08-24T02:19:36;14.70;99.90
29551;DHT22;16488;52.396;10.696;2023-08-24T02:22:01;14.60;99.90
29551;DHT22;16488;52.396;10.696;2023-08-24T02:24:27;14.50;99.90
29551;DHT22;16488;52.396;10.696;2023-08-24T02:26:53;14.40;99.90
29551;DHT22;16488;52.396;10.696;2023-08-24T02:29:18;14.40;99.90
29551;DHT22;16488;52.396;10.696;2023-08-24T02:31:44;14.60;99.90
29551;DHT22;16488;52.396;10.696;2023-08-24T02:34:10;14.50;99.90
29551;DHT22;16488;52.396;10.696;2023-08-24T02:36:35;14.40;99.90
29551;DHT22;16488;52.396;10.696;2023-08-24T02:39:01;14.40;99.90
29551;DHT22;16488;52.396;10.696;2023-08-24T02:41:27;14.30;99.90
29551;DHT22;16488;52.396;10.696;2023-08-24T02:43:53;14.10;99.90
29551;DHT22;16488;52.396;10.696;2023-08-24T02:46:20;14.10;99.90
29551;DHT22;16488;52.396;10.696;2023-08-24T02:48:46;14.00;99.90
29551;DHT22;16488;52.396;10.696;2023-08-24T02:51:11;14.00;99.90
29551;DHT22;16488;52.396;10.696;2023-08-24T02:53:37;14.00;99.90
29551;DHT22;16488;52.396;10.696;2023-08-24T02:56:03;13.90;99.90
29551;DHT22;16488;52.396;10.696;2023-08-24T02:58:29;13.90;99.90
29551;DHT22;16488;52.396;10.696;2023-08-24T03:00:55;13.90;99.90
29551;DHT22;16488;52.396;10.696;2023-08-24T03:03:21;13.90;99.90
29551;DHT22;16488;52.396;10.696;2023-08-24T03:06:03;13.90;99.90
29551;DHT22;16488;52.396;10.696;2023-08-24T03:08:30;13.80;99.90
29551;DHT22;16488;52.396;10.696;2023-08-24T03:10:55;13.80;99.90
29551;DHT22;16488;52.396;10.696;2023-08-24T03:13:21;13.80;99.90
29551;DHT22;16488;52.396;10.696;2023-08-24T03:15:47;13.90;99.90
29551;DHT22;16488;52.396;10.696;2023-08-24T03:18:14;13.80;99.90
29551;DHT22;16488;52.396;10.696;2023-08-24T03:20:40;13.80;99.90
29551;DHT22;16488;52.396;10.696;2023-08-24T03:23:06;13.70;99.90
29551;DHT22;16488;52.396;10.696;2023-08-24T03:25:36;13.70;99.90
29551;DHT22;16488;52.396;10.696;2023-08-24T03:28:02;13.60;99.90
29551;DHT22;16488;52.396;10.696;2023-08-24T03:30:28;13.60;99.90
29551;DHT22;16488;52.396;10.696;2023-08-24T03:32:54;13.50;99.90
29551;DHT22;16488;52.396;10.696;2023-08-24T03:35:19;13.50;99.90
29551;DHT22;16488;52.396;10.696;2023-08-24T03:37:45;13.50;99.90
29551;DHT22;16488;52.396;10.696;2023-08-24T03:40:12;13.50;99.90
29551;DHT22;16488;52.396;10.696;2023-08-24T03:42:37;13.50;99.90
29551;DHT22;16488;52.396;10.696;2023-08-24T03:45:03;13.50;99.90
29551;DHT22;16488;52.396;10.696;2023-08-24T03:47:29;13.50;99.90
29551;DHT22;16488;52.396;10.696;2023-08-24T03:49:55;13.60;99.90
29551;DHT22;16488;52.396;10.696;2023-08-24T03:52:20;13.60;99.90
29551;DHT22;16488;52.396;10.696;2023-08-24T03:54:46;13.70;99.90
29551;DHT22;16488;52.396;10.696;2023-08-24T03:57:12;13.80;99.90
29551;DHT22;16488;52.396;10.696;2023-08-24T03:59:37;14.00;99.90
29551;DHT22;16488;52.396;10.696;2023-08-24T04:02:03;14.10;99.90
29551;DHT22;16488;52.396;10.696;2023-08-24T04:04:30;14.10;99.90
29551;DHT22;16488;52.396;10.696;2023-08-24T04:06:56;14.00;99.90
29551;DHT22;16488;52.396;10.696;2023-08-24T04:09:21;13.90;99.90
29551;DHT22;16488;52.396;10.696;2023-08-24T04:11:47;14.00;99.90
29551;DHT22;16488;52.396;10.696;2023-08-24T04:14:12;14.00;99.90
29551;DHT22;16488;52.396;10.696;2023-08-24T04:16:39;14.00;99.90
29551;DHT22;16488;52.396;10.696;2023-08-24T04:19:04;14.00;99.90
29551;DHT22;16488;52.396;10.696;2023-08-24T04:21:30;14.00;99.90
29551;DHT22;16488;52.396;10.696;2023-08-24T04:23:56;14.00;99.90
29551;DHT22;16488;52.396;10.696;2023-08-24T04:26:22;13.90;99.90
29551;DHT22;16488;52.396;10.696;2023-08-24T04:28:48;13.90;99.90
29551;DHT22;16488;52.396;10.696;2023-08-24T04:31:15;14.00;99.90
29551;DHT22;16488;52.396;10.696;2023-08-24T04:33:40;14.10;99.90
29551;DHT22;16488;52.396;10.696;2023-08-24T04:36:06;14.20;99.90
29551;DHT22;16488;52.396;10.696;2023-08-24T04:38:32;14.30;99.90
29551;DHT22;16488;52.396;10.696;2023-08-24T04:40:57;14.10;99.90
29551;DHT22;16488;52.396;10.696;2023-08-24T04:43:24;14.00;99.90
29551;DHT22;16488;52.396;10.696;2023-08-24T04:45:54;14.10;99.90
29551;DHT22;16488;52.396;10.696;2023-08-24T04:48:24;14.20;99.90
29551;DHT22;16488;52.396;10.696;2023-08-24T04:50:50;14.20;99.90
29551;DHT22;16488;52.396;10.696;2023-08-24T04:53:17;14.10;99.90
29551;DHT22;16488;52.396;10.696;2023-08-24T04:55:43;14.00;99.90
29551;DHT22;16488;52.396;10.696;2023-08-24T04:58:10;14.00;99.90
29551;DHT22;16488;52.396;10.696;2023-08-24T05:00:36;14.00;99.90
29551;DHT22;16488;52.396;10.696;2023-08-24T05:03:02;13.90;99.90
29551;DHT22;16488;52.396;10.696;2023-08-24T05:05:29;14.00;99.90
29551;DHT22;16488;52.396;10.696;2023-08-24T05:07:55;14.10;99.90
29551;DHT22;16488;52.396;10.696;2023-08-24T05:10:21;14.10;99.90
29551;DHT22;16488;52.396;10.696;2023-08-24T05:12:47;14.10;99.90
29551;DHT22;16488;52.396;10.696;2023-08-24T05:15:12;14.10;99.90
29551;DHT22;16488;52.396;10.696;2023-08-24T05:17:42;14.30;99.90
29551;DHT22;16488;52.396;10.696;2023-08-24T05:20:08;14.30;99.90
29551;DHT22;16488;52.396;10.696;2023-08-24T05:22:36;14.30;99.90
29551;DHT22;16488;52.396;10.696;2023-08-24T05:25:02;14.30;99.90
29551;DHT22;16488;52.396;10.696;2023-08-24T05:27:27;14.50;99.90
29551;DHT22;16488;52.396;10.696;2023-08-24T05:29:53;14.60;99.90
29551;DHT22;16488;52.396;10.696;2023-08-24T05:32:18;14.60;99.90
29551;DHT22;16488;52.396;10.696;2023-08-24T05:34:45;14.60;99.90
29551;DHT22;16488;52.396;10.696;2023-08-24T05:37:11;14.70;99.90
29551;DHT22;16488;52.396;10.696;2023-08-24T05:39:37;14.80;99.90
29551;DHT22;16488;52.396;10.696;2023-08-24T05:42:02;14.90;99.90
29551;DHT22;16488;52.396;10.696;2023-08-24T05:44:28;15.00;99.90
29551;DHT22;16488;52.396;10.696;2023-08-24T05:46:54;15.10;99.90
29551;DHT22;16488;52.396;10.696;2023-08-24T05:49:19;15.20;99.90
29551;DHT22;16488;52.396;10.696;2023-08-24T05:51:45;15.30;99.90
29551;DHT22;16488;52.396;10.696;2023-08-24T05:54:10;15.50;99.90
29551;DHT22;16488;52.396;10.696;2023-08-24T05:56:36;15.60;99.90
29551;DHT22;16488;52.396;10.696;2023-08-24T05:59:02;15.70;99.90
29551;DHT22;16488;52.396;10.696;2023-08-24T06:01:28;15.80;99.90
29551;DHT22;16488;52.396;10.696;2023-08-24T06:03:53;15.90;99.90
29551;DHT22;16488;52.396;10.696;2023-08-24T06:06:19;15.90;99.90
29551;DHT22;16488;52.396;10.696;2023-08-24T06:08:44;16.00;99.90
29551;DHT22;16488;52.396;10.696;2023-08-24T06:11:10;16.10;99.90
29551;DHT22;16488;52.396;10.696;2023-08-24T06:13:35;16.20;99.90
29551;DHT22;16488;52.396;10.696;2023-08-24T06:16:01;16.40;99.90
29551;DHT22;16488;52.396;10.696;2023-08-24T06:18:27;16.50;99.90
29551;DHT22;16488;52.396;10.696;2023-08-24T06:20:53;16.60;99.90
29551;DHT22;16488;52.396;10.696;2023-08-24T06:23:19;16.60;99.90
29551;DHT22;16488;52.396;10.696;2023-08-24T06:25:47;16.70;99.90
29551;DHT22;16488;52.396;10.696;2023-08-24T06:28:13;16.80;99.90
29551;DHT22;16488;52.396;10.696;2023-08-24T06:30:39;16.90;99.90
29551;DHT22;16488;52.396;10.696;2023-08-24T06:33:06;17.00;99.90
29551;DHT22;16488;52.396;10.696;2023-08-24T06:35:32;17.00;99.90
29551;DHT22;16488;52.396;10.696;2023-08-24T06:37:58;17.00;99.90
29551;DHT22;16488;52.396;10.696;2023-08-24T06:40:23;17.00;99.90
29551;DHT22;16488;52.396;10.696;2023-08-24T06:42:49;17.10;99.90
29551;DHT22;16488;52.396;10.696;2023-08-24T06:45:15;17.20;99.90
29551;DHT22;16488;52.396;10.696;2023-08-24T06:47:40;17.20;99.90
29551;DHT22;16488;52.396;10.696;2023-08-24T06:50:06;17.20;99.90
29551;DHT22;16488;52.396;10.696;2023-08-24T06:52:32;17.20;99.90
29551;DHT22;16488;52.396;10.696;2023-08-24T06:54:59;17.30;99.90
29551;DHT22;16488;52.396;10.696;2023-08-24T06:57:25;17.30;99.90
29551;DHT22;16488;52.396;10.696;2023-08-24T06:59:51;17.40;99.90
29551;DHT22;16488;52.396;10.696;2023-08-24T07:02:17;17.40;99.90
29551;DHT22;16488;52.396;10.696;2023-08-24T07:04:43;17.50;99.90
29551;DHT22;16488;52.396;10.696;2023-08-24T07:07:09;17.50;99.90
29551;DHT22;16488;52.396;10.696;2023-08-24T07:09:35;17.60;99.90
29551;DHT22;16488;52.396;10.696;2023-08-24T07:12:02;17.60;99.90
29551;DHT22;16488;52.396;10.696;2023-08-24T07:14:28;17.70;99.90
29551;DHT22;16488;52.396;10.696;2023-08-24T07:16:54;17.80;99.90
29551;DHT22;16488;52.396;10.696;2023-08-24T07:19:19;17.80;99.90
29551;DHT22;16488;52.396;10.696;2023-08-24T07:21:46;17.90;99.90
29551;DHT22;16488;52.396;10.696;2023-08-24T07:24:12;18.00;99.90
29551;DHT22;16488;52.396;10.696;2023-08-24T07:26:37;18.00;99.90
29551;DHT22;16488;52.396;10.696;2023-08-24T07:29:03;18.10;99.90
29551;DHT22;16488;52.396;10.696;2023-08-24T07:31:28;18.20;99.90
29551;DHT22;16488;52.396;10.696;2023-08-24T07:33:54;18.30;99.90
29551;DHT22;16488;52.396;10.696;2023-08-24T07:36:19;18.40;99.90
29551;DHT22;16488;52.396;10.696;2023-08-24T07:38:46;18.50;99.90
29551;DHT22;16488;52.396;10.696;2023-08-24T07:41:14;18.60;99.90
29551;DHT22;16488;52.396;10.696;2023-08-24T07:43:40;18.60;99.90
29551;DHT22;16488;52.396;10.696;2023-08-24T07:46:06;18.50;99.90
29551;DHT22;16488;52.396;10.696;2023-08-24T07:48:31;18.60;99.90
29551;DHT22;16488;52.396;10.696;2023-08-24T07:50:57;18.50;99.90
29551;DHT22;16488;52.396;10.696;2023-08-24T07:53:22;18.50;99.90
29551;DHT22;16488;52.396;10.696;2023-08-24T07:55:48;18.60;99.90
29551;DHT22;16488;52.396;10.696;2023-08-24T07:58:13;18.70;99.90
29551;DHT22;16488;52.396;10.696;2023-08-24T08:00:39;18.70;99.90
29551;DHT22;16488;52.396;10.696;2023-08-24T08:03:05;18.80;99.90
29551;DHT22;16488;52.396;10.696;2023-08-24T08:05:30;18.90;99.90
29551;DHT22;16488;52.396;10.696;2023-08-24T08:07:56;19.00;99.90
29551;DHT22;16488;52.396;10.696;2023-08-24T08:10:21;19.10;99.90
29551;DHT22;16488;52.396;10.696;2023-08-24T08:12:47;19.30;99.90
29551;DHT22;16488;52.396;10.696;2023-08-24T08:15:13;19.40;99.90
29551;DHT22;16488;52.396;10.696;2023-08-24T08:17:38;19.40;99.90
29551;DHT22;16488;52.396;10.696;2023-08-24T08:20:04;19.50;99.90
29551;DHT22;16488;52.396;10.696;2023-08-24T08:22:30;19.60;99.90
29551;DHT22;16488;52.396;10.696;2023-08-24T08:25:01;19.70;99.90
29551;DHT22;16488;52.396;10.696;2023-08-24T08:27:27;19.80;99.90
29551;DHT22;16488;52.396;10.696;2023-08-24T08:29:52;20.00;99.90
29551;DHT22;16488;52.396;10.696;2023-08-24T08:32:18;20.10;99.90
29551;DHT22;16488;52.396;10.696;2023-08-24T08:34:43;20.20;99.90
29551;DHT22;16488;52.396;10.696;2023-08-24T08:37:09;20.30;99.90
29551;DHT22;16488;52.396;10.696;2023-08-24T08:39:35;20.40;99.90
29551;DHT22;16488;52.396;10.696;2023-08-24T08:42:01;20.50;99.90
29551;DHT22;16488;52.396;10.696;2023-08-24T08:44:30;20.60;99.90
29551;DHT22;16488;52.396;10.696;2023-08-24T08:46:59;20.80;99.90
29551;DHT22;16488;52.396;10.696;2023-08-24T08:49:26;20.80;99.90
29551;DHT22;16488;52.396;10.696;2023-08-24T08:51:52;20.90;99.90
29551;DHT22;16488;52.396;10.696;2023-08-24T08:54:18;21.00;99.90
29551;DHT22;16488;52.396;10.696;2023-08-24T08:56:43;21.10;99.90
29551;DHT22;16488;52.396;10.696;2023-08-24T08:59:11;21.20;99.90
29551;DHT22;16488;52.396;10.696;2023-08-24T09:01:38;21.40;99.90
29551;DHT22;16488;52.396;10.696;2023-08-24T09:04:05;21.50;99.90
29551;DHT22;16488;52.396;10.696;2023-08-24T09:06:32;21.60;99.90
29551;DHT22;16488;52.396;10.696;2023-08-24T09:08:57;21.70;99.90
29551;DHT22;16488;52.396;10.696;2023-08-24T09:11:23;21.70;99.90
29551;DHT22;16488;52.396;10.696;2023-08-24T09:13:49;21.80;99.90
29551;DHT22;16488;52.396;10.696;2023-08-24T09:16:15;21.90;99.90
29551;DHT22;16488;52.396;10.696;2023-08-24T09:18:45;22.00;99.90
29551;DHT22;16488;52.396;10.696;2023-08-24T09:21:13;22.00;99.90
29551;DHT22;16488;52.396;10.696;2023-08-24T09:23:51;22.00;99.90
29551;DHT22;16488;52.396;10.696;2023-08-24T09:26:37;22.20;99.90
29551;DHT22;16488;52.396;10.696;2023-08-24T09:29:16;22.30;99.90
29551;DHT22;16488;52.396;10.696;2023-08-24T09:31:42;22.40;99.90
29551;DHT22;16488;52.396;10.696;2023-08-24T09:34:09;22.50;99.90
29551;DHT22;16488;52.396;10.696;2023-08-24T09:36:36;22.60;99.90
29551;DHT22;16488;52.396;10.696;2023-08-24T09:39:03;22.80;99.90
29551;DHT22;16488;52.396;10.696;2023-08-24T09:41:44;22.80;99.90
29551;DHT22;16488;52.396;10.696;2023-08-24T09:44:10;22.90;99.90
29551;DHT22;16488;52.396;10.696;2023-08-24T09:46:37;23.00;99.90
29551;DHT22;16488;52.396;10.696;2023-08-24T09:49:08;23.10;99.90
29551;DHT22;16488;52.396;10.696;2023-08-24T09:51:34;23.10;99.90
29551;DHT22;16488;52.396;10.696;2023-08-24T09:54:11;23.20;99.90
29551;DHT22;16488;52.396;10.696;2023-08-24T09:56:40;23.20;99.90
29551;DHT22;16488;52.396;10.696;2023-08-24T09:59:12;23.30;99.90
29551;DHT22;16488;52.396;10.696;2023-08-24T10:01:45;23.50;99.90
29551;DHT22;16488;52.396;10.696;2023-08-24T10:04:13;23.80;99.90
29551;DHT22;16488;52.396;10.696;2023-08-24T10:06:40;23.70;99.90
29551;DHT22;16488;52.396;10.696;2023-08-24T10:09:11;23.80;99.90
29551;DHT22;16488;52.396;10.696;2023-08-24T10:11:45;23.80;99.90
29551;DHT22;16488;52.396;10.696;2023-08-24T10:14:17;23.90;99.90
29551;DHT22;16488;52.396;10.696;2023-08-24T10:16:46;23.80;99.90
29551;DHT22;16488;52.396;10.696;2023-08-24T10:19:13;23.70;99.90
29551;DHT22;16488;52.396;10.696;2023-08-24T10:21:39;23.80;99.90
29551;DHT22;16488;52.396;10.696;2023-08-24T10:24:06;23.80;99.90
29551;DHT22;16488;52.396;10.696;2023-08-24T10:26:34;23.90;99.90
29551;DHT22;16488;52.396;10.696;2023-08-24T10:29:00;23.90;99.90
29551;DHT22;16488;52.396;10.696;2023-08-24T10:31:26;24.00;99.90
29551;DHT22;16488;52.396;10.696;2023-08-24T10:33:52;24.10;99.90
29551;DHT22;16488;52.396;10.696;2023-08-24T10:36:19;24.10;99.90
29551;DHT22;16488;52.396;10.696;2023-08-24T10:38:44;24.20;99.90
29551;DHT22;16488;52.396;10.696;2023-08-24T10:41:11;24.30;99.90
29551;DHT22;16488;52.396;10.696;2023-08-24T10:43:40;24.20;99.90
29551;DHT22;16488;52.396;10.696;2023-08-24T10:46:13;24.30;99.90
29551;DHT22;16488;52.396;10.696;2023-08-24T10:53:40;24.50;99.90
29551;DHT22;16488;52.396;10.696;2023-08-24T10:56:16;24.60;99.90
29551;DHT22;16488;52.396;10.696;2023-08-24T10:58:46;24.60;99.90
29551;DHT22;16488;52.396;10.696;2023-08-24T11:01:16;24.60;99.90
29551;DHT22;16488;52.396;10.696;2023-08-24T11:03:49;24.70;99.90
29551;DHT22;16488;52.396;10.696;2023-08-24T11:06:24;24.70;99.90
29551;DHT22;16488;52.396;10.696;2023-08-24T11:09:08;24.70;99.90
29551;DHT22;16488;52.396;10.696;2023-08-24T11:11:55;24.70;99.90
29551;DHT22;16488;52.396;10.696;2023-08-24T11:14:21;24.80;99.90
29551;DHT22;16488;52.396;10.696;2023-08-24T11:16:52;24.80;99.90
29551;DHT22;16488;52.396;10.696;2023-08-24T11:19:18;25.00;99.90
29551;DHT22;16488;52.396;10.696;2023-08-24T11:21:45;25.00;99.90
29551;DHT22;16488;52.396;10.696;2023-08-24T11:24:14;25.00;99.90
29551;DHT22;16488;52.396;10.696;2023-08-24T11:26:42;25.10;99.90
29551;DHT22;16488;52.396;10.696;2023-08-24T11:29:08;25.10;99.90
29551;DHT22;16488;52.396;10.696;2023-08-24T11:31:35;25.20;99.90
29551;DHT22;16488;52.396;10.696;2023-08-24T11:34:24;25.20;99.90
29551;DHT22;16488;52.396;10.696;2023-08-24T11:37:01;25.20;99.90
29551;DHT22;16488;52.396;10.696;2023-08-24T11:39:27;25.30;99.90
29551;DHT22;16488;52.396;10.696;2023-08-24T11:44:26;25.20;99.90
29551;DHT22;16488;52.396;10.696;2023-08-24T11:46:51;25.20;99.90
29551;DHT22;16488;52.396;10.696;2023-08-24T11:49:17;25.10;99.90
29551;DHT22;16488;52.396;10.696;2023-08-24T11:51:43;25.10;99.90
29551;DHT22;16488;52.396;10.696;2023-08-24T11:54:09;25.20;99.90
29551;DHT22;16488;52.396;10.696;2023-08-24T11:56:43;25.20;99.90
29551;DHT22;16488;52.396;10.696;2023-08-24T11:59:15;25.30;99.90
29551;DHT22;16488;52.396;10.696;2023-08-24T12:01:41;25.30;99.90
29551;DHT22;16488;52.396;10.696;2023-08-24T12:04:08;25.40;99.90
29551;DHT22;16488;52.396;10.696;2023-08-24T12:06:33;25.40;99.90
29551;DHT22;16488;52.396;10.696;2023-08-24T12:08:59;25.50;99.90
29551;DHT22;16488;52.396;10.696;2023-08-24T12:11:26;25.50;99.90
29551;DHT22;16488;52.396;10.696;2023-08-24T12:13:53;25.60;99.90
29551;DHT22;16488;52.396;10.696;2023-08-24T12:16:22;25.80;99.90
29551;DHT22;16488;52.396;10.696;2023-08-24T12:18:57;26.00;99.90
29551;DHT22;16488;52.396;10.696;2023-08-24T12:21:29;26.00;99.90
29551;DHT22;16488;52.396;10.696;2023-08-24T12:24:02;26.00;99.90
29551;DHT22;16488;52.396;10.696;2023-08-24T12:26:32;26.10;99.90
29551;DHT22;16488;52.396;10.696;2023-08-24T12:29:04;26.10;99.90
29551;DHT22;16488;52.396;10.696;2023-08-24T12:31:31;26.20;99.90
29551;DHT22;16488;52.396;10.696;2023-08-24T12:34:05;26.20;99.90
29551;DHT22;16488;52.396;10.696;2023-08-24T12:36:36;26.30;99.90
29551;DHT22;16488;52.396;10.696;2023-08-24T12:39:04;26.20;99.90
29551;DHT22;16488;52.396;10.696;2023-08-24T12:41:30;26.20;99.90
29551;DHT22;16488;52.396;10.696;2023-08-24T12:43:56;26.20;99.90
29551;DHT22;16488;52.396;10.696;2023-08-24T12:46:21;26.30;99.90
29551;DHT22;16488;52.396;10.696;2023-08-24T12:48:47;26.40;99.90
29551;DHT22;16488;52.396;10.696;2023-08-24T12:51:13;26.40;99.90
29551;DHT22;16488;52.396;10.696;2023-08-24T12:53:39;26.40;99.90
29551;DHT22;16488;52.396;10.696;2023-08-24T12:56:04;26.40;99.90
29551;DHT22;16488;52.396;10.696;2023-08-24T12:58:30;26.40;99.90
29551;DHT22;16488;52.396;10.696;2023-08-24T13:00:56;26.50;99.90
29551;DHT22;16488;52.396;10.696;2023-08-24T13:03:21;26.60;99.90
29551;DHT22;16488;52.396;10.696;2023-08-24T13:05:47;26.60;99.90
29551;DHT22;16488;52.396;10.696;2023-08-24T13:08:13;26.70;99.90
29551;DHT22;16488;52.396;10.696;2023-08-24T13:10:39;26.80;99.90
29551;DHT22;16488;52.396;10.696;2023-08-24T13:13:04;26.80;99.90
29551;DHT22;16488;52.396;10.696;2023-08-24T13:15:30;26.70;99.90
29551;DHT22;16488;52.396;10.696;2023-08-24T13:17:56;26.50;99.90
29551;DHT22;16488;52.396;10.696;2023-08-24T13:20:24;26.50;99.90
29551;DHT22;16488;52.396;10.696;2023-08-24T13:22:49;26.50;99.90
29551;DHT22;16488;52.396;10.696;2023-08-24T13:25:15;26.50;99.90
29551;DHT22;16488;52.396;10.696;2023-08-24T13:27:40;26.50;99.90
29551;DHT22;16488;52.396;10.696;2023-08-24T13:30:06;26.50;99.90
29551;DHT22;16488;52.396;10.696;2023-08-24T13:32:33;26.50;99.90
29551;DHT22;16488;52.396;10.696;2023-08-24T13:35:00;26.60;99.90
29551;DHT22;16488;52.396;10.696;2023-08-24T13:37:25;26.80;99.90
29551;DHT22;16488;52.396;10.696;2023-08-24T13:39:51;26.80;99.90
29551;DHT22;16488;52.396;10.696;2023-08-24T13:42:17;26.90;99.90
29551;DHT22;16488;52.396;10.696;2023-08-24T13:44:43;27.00;99.90
29551;DHT22;16488;52.396;10.696;2023-08-24T13:47:09;27.00;99.90
29551;DHT22;16488;52.396;10.696;2023-08-24T13:49:34;27.00;99.90
29551;DHT22;16488;52.396;10.696;2023-08-24T13:52:00;27.00;99.90
29551;DHT22;16488;52.396;10.696;2023-08-24T13:54:26;27.00;98.90
29551;DHT22;16488;52.396;10.696;2023-08-24T13:56:52;27.00;99.90
29551;DHT22;16488;52.396;10.696;2023-08-24T13:59:19;27.00;99.00
29551;DHT22;16488;52.396;10.696;2023-08-24T14:01:46;27.10;98.90
29551;DHT22;16488;52.396;10.696;2023-08-24T14:04:11;27.20;99.40
29551;DHT22;16488;52.396;10.696;2023-08-24T14:06:37;27.20;99.10
29551;DHT22;16488;52.396;10.696;2023-08-24T14:09:04;27.30;99.90
29551;DHT22;16488;52.396;10.696;2023-08-24T14:11:30;27.20;98.90
29551;DHT22;16488;52.396;10.696;2023-08-24T14:13:57;27.30;98.00
29551;DHT22;16488;52.396;10.696;2023-08-24T14:16:23;27.40;97.60
29551;DHT22;16488;52.396;10.696;2023-08-24T14:18:49;27.30;98.00
29551;DHT22;16488;52.396;10.696;2023-08-24T14:21:15;27.30;98.80
29551;DHT22;16488;52.396;10.696;2023-08-24T14:23:41;27.40;99.90
29551;DHT22;16488;52.396;10.696;2023-08-24T14:26:07;27.40;97.80
29551;DHT22;16488;52.396;10.696;2023-08-24T14:28:50;27.40;97.30
29551;DHT22;16488;52.396;10.696;2023-08-24T14:31:17;27.30;97.60
29551;DHT22;16488;52.396;10.696;2023-08-24T14:33:42;27.30;98.50
29551;DHT22;16488;52.396;10.696;2023-08-24T14:36:09;27.20;97.70
29551;DHT22;16488;52.396;10.696;2023-08-24T14:38:38;27.10;98.00
29551;DHT22;16488;52.396;10.696;2023-08-24T14:41:03;27.10;98.70
29551;DHT22;16488;52.396;10.696;2023-08-24T14:43:29;27.00;98.80
29551;DHT22;16488;52.396;10.696;2023-08-24T14:45:54;27.00;98.00
29551;DHT22;16488;52.396;10.696;2023-08-24T14:48:20;26.90;98.00
29551;DHT22;16488;52.396;10.696;2023-08-24T14:50:45;26.90;98.50
29551;DHT22;16488;52.396;10.696;2023-08-24T14:53:11;26.80;97.80
29551;DHT22;16488;52.396;10.696;2023-08-24T14:55:40;26.80;98.80
29551;DHT22;16488;52.396;10.696;2023-08-24T14:58:06;26.80;97.00
29551;DHT22;16488;52.396;10.696;2023-08-24T15:00:33;26.80;97.40
29551;DHT22;16488;52.396;10.696;2023-08-24T15:02:58;26.80;97.80
29551;DHT22;16488;52.396;10.696;2023-08-24T15:05:24;26.80;97.90
29551;DHT22;16488;52.396;10.696;2023-08-24T15:07:50;26.80;98.00
29551;DHT22;16488;52.396;10.696;2023-08-24T15:10:16;26.80;98.30
29551;DHT22;16488;52.396;10.696;2023-08-24T15:12:48;26.80;97.80
29551;DHT22;16488;52.396;10.696;2023-08-24T15:15:14;26.70;98.20
29551;DHT22;16488;52.396;10.696;2023-08-24T15:17:43;26.70;97.50
29551;DHT22;16488;52.396;10.696;2023-08-24T15:20:13;26.70;97.60
29551;DHT22;16488;52.396;10.696;2023-08-24T15:22:39;26.70;98.40
29551;DHT22;16488;52.396;10.696;2023-08-24T15:25:07;26.60;98.10
29551;DHT22;16488;52.396;10.696;2023-08-24T15:27:33;26.60;98.80